EDNY

Friedrichshafen Airport

Friedrichshafen, Germany
TAF EDNY 170500Z 1706/1806 05008KT 9999 BKN020
Issued Valid From Valid To
Nov-17 @ 05:00 UTC
(4 hours ago)
Nov-17 @ 06:00 UTC
(3 hours ago)
Nov-18 @ 06:00 UTC
(in 21 hours)
Nov-17 @ 06:00 to Nov-18 @ 06:00
TAF EDNY 170500Z 1706/1806 05008KT 9999 BKN020
Wind Visibility Clouds
50° at 8 knots 10,000+ meters
  • Broken at 2,000' AGL
TAF EDNY 170500Z 1706/1806 05008KT 9999 BKN020
Issued Nov-17 @ 05:00 UTC
(4 hours ago)
Valid From Nov-17 @ 06:00 UTC
(3 hours ago)
Valid To Nov-18 @ 06:00 UTC
(in 21 hours)
Nov-17 @ 06:00 - Nov-18 @ 06:00
Wind Visibility
50° at 8 knots 10,000+ meters
Clouds
  • Broken at 2,000' AGL